createdAt,value
2022-08-31T00:00:28.432Z,8.27
2022-08-31T00:03:13.869Z,7.63
2022-08-31T00:05:43.419Z,7.38
2022-08-31T00:08:11.639Z,16.50
2022-08-31T00:10:41.511Z,7.25
2022-08-31T00:13:13.855Z,6.97
2022-08-31T00:15:43.051Z,11.23
2022-08-31T00:18:11.688Z,9.55
2022-08-31T00:20:39.711Z,9.13
2022-08-31T00:23:11.292Z,6.47
2022-08-31T00:25:41.432Z,5.68
2022-08-31T00:28:10.204Z,6.93
2022-08-31T00:30:38.492Z,7.35
2022-08-31T00:33:06.594Z,6.45
2022-08-31T00:35:36.717Z,12.27
2022-08-31T00:38:05.033Z,8.90
2022-08-31T00:40:38.159Z,10.68
2022-08-31T00:43:12.758Z,6.50
2022-08-31T00:45:40.699Z,9.63
2022-08-31T00:48:08.588Z,8.55
2022-08-31T00:50:36.436Z,10.65
2022-08-31T00:53:05.410Z,9.68
2022-08-31T00:55:38.077Z,10.57
2022-08-31T00:58:10.093Z,7.85
2022-08-31T01:00:38.452Z,12.18
2022-08-31T01:03:08.123Z,9.10
2022-08-31T01:05:37.504Z,12.95
2022-08-31T01:08:07.009Z,10.45
2022-08-31T01:10:40.093Z,20.23
2022-08-31T01:13:09.098Z,11.05
2022-08-31T01:15:38.792Z,8.90
2022-08-31T01:18:08.300Z,9.23
2022-08-31T01:20:49.161Z,14.27
2022-08-31T01:23:22.500Z,13.50
2022-08-31T01:25:52.604Z,7.63
2022-08-31T01:28:20.851Z,9.77
2022-08-31T01:31:00.260Z,9.20
2022-08-31T01:33:28.654Z,8.27
2022-08-31T01:35:57.214Z,10.18
2022-08-31T01:38:26.803Z,8.05
2022-08-31T01:40:57.702Z,9.32
2022-08-31T01:43:26.500Z,9.73
2022-08-31T01:45:54.494Z,13.75
2022-08-31T01:48:23.598Z,14.98
2022-08-31T01:50:51.384Z,19.67
2022-08-31T01:53:19.413Z,16.98
2022-08-31T01:55:48.788Z,13.32
2022-08-31T01:58:16.679Z,17.08
2022-08-31T02:00:45.537Z,14.27
2022-08-31T02:03:13.541Z,15.23
2022-08-31T02:05:42.012Z,15.68
2022-08-31T02:08:11.757Z,13.13
2022-08-31T02:10:39.751Z,11.52
2022-08-31T02:13:08.996Z,13.73
2022-08-31T02:15:38.595Z,11.68
2022-08-31T02:18:07.061Z,14.27
2022-08-31T02:20:35.420Z,14.43
2022-08-31T02:23:03.533Z,16.52
2022-08-31T02:25:31.868Z,16.52
2022-08-31T02:27:59.660Z,14.75
2022-08-31T02:30:29.266Z,13.32
2022-08-31T02:32:57.091Z,11.98
2022-08-31T02:35:25.281Z,12.90
2022-08-31T02:37:53.036Z,9.60
2022-08-31T02:40:20.946Z,10.57
2022-08-31T02:42:52.898Z,11.50
2022-08-31T02:45:22.322Z,14.93
2022-08-31T02:47:52.173Z,11.88
2022-08-31T02:50:20.055Z,13.20
2022-08-31T02:52:47.956Z,12.65
2022-08-31T02:55:16.142Z,11.40
2022-08-31T02:57:43.871Z,15.90
2022-08-31T03:00:13.449Z,12.13
2022-08-31T03:02:41.468Z,11.13
2022-08-31T03:05:11.692Z,10.07
2022-08-31T03:07:39.700Z,11.02
2022-08-31T03:10:11.510Z,11.75
2022-08-31T03:12:39.702Z,10.38
2022-08-31T03:15:09.416Z,11.80
2022-08-31T03:17:37.673Z,9.95
2022-08-31T03:20:07.238Z,10.23
2022-08-31T03:22:36.421Z,11.57
2022-08-31T03:25:06.052Z,11.07
2022-08-31T03:27:34.353Z,13.68
2022-08-31T03:30:02.149Z,14.00
2022-08-31T03:32:30.922Z,11.75
2022-08-31T03:35:01.291Z,11.65
2022-08-31T03:37:29.431Z,10.95
2022-08-31T03:39:58.991Z,11.38
2022-08-31T03:42:27.574Z,14.45
2022-08-31T03:44:56.537Z,14.23
2022-08-31T03:47:24.318Z,16.20
2022-08-31T03:49:56.346Z,17.88
2022-08-31T03:52:24.102Z,14.32
2022-08-31T03:54:51.828Z,12.40
2022-08-31T03:57:21.120Z,17.08
2022-08-31T03:59:48.928Z,17.25
2022-08-31T04:02:16.750Z,12.32
2022-08-31T04:04:44.519Z,14.73
2022-08-31T04:07:16.504Z,11.93
2022-08-31T04:09:45.118Z,12.18
2022-08-31T04:12:12.945Z,12.02
2022-08-31T04:14:42.326Z,14.75
2022-08-31T04:17:11.181Z,13.77
2022-08-31T04:19:41.061Z,11.68
2022-08-31T04:22:09.530Z,12.70
2022-08-31T04:24:37.491Z,14.77
2022-08-31T04:27:05.802Z,12.25
2022-08-31T04:29:33.619Z,11.77
2022-08-31T04:32:02.788Z,12.23
2022-08-31T04:34:30.546Z,14.43
2022-08-31T04:36:58.394Z,10.82
2022-08-31T04:39:26.158Z,10.02
2022-08-31T04:42:00.859Z,11.02
2022-08-31T04:44:28.725Z,11.48
2022-08-31T04:46:56.551Z,14.95
2022-08-31T04:49:25.706Z,17.40
2022-08-31T04:51:53.457Z,14.88
2022-08-31T04:54:21.341Z,13.63
2022-08-31T04:56:49.377Z,15.18
2022-08-31T04:59:18.946Z,13.13
2022-08-31T05:01:47.040Z,15.10
2022-08-31T05:04:17.023Z,19.92
2022-08-31T05:06:47.819Z,15.48
2022-08-31T05:09:19.017Z,20.65
2022-08-31T05:11:47.114Z,23.77
2022-08-31T05:14:14.946Z,22.48
2022-08-31T05:16:43.717Z,19.08
2022-08-31T05:19:11.788Z,15.65
2022-08-31T05:21:41.253Z,13.77
2022-08-31T05:24:12.562Z,7.50
2022-08-31T05:26:44.431Z,11.13
2022-08-31T05:29:15.290Z,11.25
2022-08-31T05:31:47.085Z,10.00
2022-08-31T05:34:17.822Z,13.70
2022-08-31T05:36:47.427Z,11.95
2022-08-31T05:39:16.931Z,11.60
2022-08-31T05:41:46.697Z,9.73
2022-08-31T05:44:15.386Z,8.93
2022-08-31T05:46:43.715Z,8.65
2022-08-31T05:49:11.838Z,13.00
2022-08-31T05:51:40.357Z,11.02
2022-08-31T05:54:10.781Z,11.45
2022-08-31T05:56:41.890Z,12.35
2022-08-31T06:01:41.079Z,13.43
2022-08-31T06:04:10.428Z,9.48
2022-08-31T06:06:39.280Z,11.88
2022-08-31T06:09:08.613Z,12.70
2022-08-31T06:11:40.464Z,7.32
2022-08-31T06:14:10.902Z,6.88
2022-08-31T06:16:40.376Z,8.40
2022-08-31T06:19:08.685Z,13.13
2022-08-31T06:21:39.792Z,11.80
2022-08-31T06:24:18.452Z,10.93
2022-08-31T06:26:58.471Z,8.57
2022-08-31T06:29:31.601Z,6.38
2022-08-31T06:32:00.446Z,10.23
2022-08-31T06:34:29.474Z,10.75
2022-08-31T06:36:57.218Z,11.20
2022-08-31T06:39:25.322Z,8.18
2022-08-31T06:41:54.077Z,8.73
2022-08-31T06:44:22.595Z,6.72
2022-08-31T06:46:52.455Z,7.40
2022-08-31T06:49:20.929Z,7.57
2022-08-31T06:51:48.924Z,9.30
2022-08-31T06:54:29.463Z,5.95
2022-08-31T06:56:59.395Z,7.50
2022-08-31T06:59:29.135Z,6.25
2022-08-31T07:01:59.857Z,7.05
2022-08-31T07:04:28.726Z,8.43
2022-08-31T07:06:56.502Z,6.63
2022-08-31T07:09:25.085Z,7.70
2022-08-31T07:11:53.627Z,11.27
2022-08-31T07:14:24.843Z,8.00
2022-08-31T07:16:54.289Z,8.82
2022-08-31T07:19:24.409Z,5.78
2022-08-31T07:21:54.532Z,6.05
2022-08-31T07:24:24.333Z,11.88
2022-08-31T07:26:54.509Z,7.63
2022-08-31T07:29:23.910Z,10.05
2022-08-31T07:31:53.025Z,11.52
2022-08-31T07:34:25.670Z,9.52
2022-08-31T07:37:20.689Z,8.43
2022-08-31T07:40:07.815Z,6.75
2022-08-31T07:42:39.172Z,10.93
2022-08-31T07:45:11.648Z,7.93
2022-08-31T07:47:46.079Z,11.38
2022-08-31T07:50:15.067Z,9.27
2022-08-31T07:52:47.283Z,10.13
2022-08-31T07:55:17.943Z,11.68
2022-08-31T07:57:46.358Z,14.23
2022-08-31T08:00:21.045Z,7.85
2022-08-31T08:02:52.842Z,9.52
2022-08-31T08:05:27.416Z,7.15
2022-08-31T08:08:09.323Z,10.52
2022-08-31T08:10:52.314Z,8.07
2022-08-31T08:13:21.095Z,13.75
2022-08-31T08:15:50.774Z,8.93
2022-08-31T08:18:20.761Z,10.65
2022-08-31T08:20:49.438Z,9.52
2022-08-31T08:23:28.218Z,9.88
2022-08-31T08:26:01.601Z,8.85
2022-08-31T08:28:45.970Z,6.20
2022-08-31T08:31:19.158Z,11.52
2022-08-31T08:33:47.418Z,7.18
2022-08-31T08:36:18.151Z,7.97
2022-08-31T08:38:48.925Z,8.55
2022-08-31T08:41:20.020Z,7.30
2022-08-31T08:43:52.435Z,7.72
2022-08-31T08:46:36.844Z,10.00
2022-08-31T08:49:15.652Z,9.35
2022-08-31T08:51:44.768Z,6.25
2022-08-31T08:54:19.528Z,7.82
2022-08-31T08:56:49.194Z,8.15
2022-08-31T08:59:20.060Z,8.80
2022-08-31T09:01:53.028Z,10.52
2022-08-31T09:04:35.369Z,11.35
2022-08-31T09:07:22.911Z,7.15
2022-08-31T09:10:02.256Z,7.85
2022-08-31T09:12:42.962Z,5.80
2022-08-31T09:15:49.408Z,7.43
2022-08-31T09:18:33.606Z,9.75
2022-08-31T09:21:10.072Z,7.53
2022-08-31T09:23:49.209Z,9.98
2022-08-31T09:26:20.050Z,10.23
2022-08-31T09:28:49.365Z,9.43
2022-08-31T09:31:34.778Z,9.82
2022-08-31T09:34:03.902Z,7.40
2022-08-31T09:36:41.114Z,10.93
2022-08-31T09:39:24.950Z,7.97
2022-08-31T09:42:03.376Z,9.43
2022-08-31T09:44:35.249Z,9.75
2022-08-31T09:47:06.797Z,9.17
2022-08-31T09:49:37.744Z,9.90
2022-08-31T09:52:21.867Z,9.65
2022-08-31T09:55:13.762Z,20.38
2022-08-31T09:57:54.112Z,10.43
2022-08-31T10:00:38.904Z,8.93
2022-08-31T10:03:19.767Z,7.70
2022-08-31T10:05:50.551Z,8.10
2022-08-31T10:08:42.290Z,9.85
2022-08-31T10:11:15.745Z,8.82
2022-08-31T10:13:57.193Z,6.90
2022-08-31T10:16:30.495Z,7.35
2022-08-31T10:19:04.170Z,6.55
2022-08-31T10:21:43.954Z,7.55
2022-08-31T10:24:21.774Z,10.25
2022-08-31T10:26:57.092Z,6.60
2022-08-31T10:29:33.541Z,9.00
2022-08-31T10:32:06.097Z,7.93
2022-08-31T10:34:58.306Z,6.68
2022-08-31T10:37:36.725Z,8.80
2022-08-31T10:40:09.862Z,11.68
2022-08-31T10:42:42.517Z,9.75
2022-08-31T10:45:18.794Z,8.50
2022-08-31T10:47:49.539Z,9.30
2022-08-31T10:50:28.568Z,8.98
2022-08-31T10:53:09.123Z,7.85
2022-08-31T10:55:48.644Z,7.78
2022-08-31T10:58:25.828Z,10.57
2022-08-31T11:00:59.453Z,7.60
2022-08-31T11:03:43.472Z,10.55
2022-08-31T11:06:25.242Z,7.82
2022-08-31T11:09:03.020Z,8.85
2022-08-31T11:11:43.393Z,9.18
2022-08-31T11:14:49.872Z,8.23
2022-08-31T11:17:40.132Z,12.23
2022-08-31T11:20:42.979Z,9.93
2022-08-31T11:23:29.859Z,8.52
2022-08-31T11:26:46.152Z,7.30
2022-08-31T11:29:29.247Z,9.63
2022-08-31T11:32:01.876Z,7.97
2022-08-31T11:34:47.138Z,7.53
2022-08-31T11:37:55.769Z,8.90
2022-08-31T11:41:10.912Z,9.40
2022-08-31T11:43:51.963Z,9.57
2022-08-31T11:46:43.123Z,7.85
2022-08-31T11:49:11.917Z,8.15
2022-08-31T11:51:48.152Z,8.25
2022-08-31T11:54:42.019Z,11.82
2022-08-31T11:57:15.666Z,8.40
2022-08-31T11:59:45.988Z,8.43
2022-08-31T12:02:44.748Z,6.78
2022-08-31T12:05:13.546Z,8.55
2022-08-31T12:07:46.319Z,6.85
2022-08-31T12:10:46.442Z,10.27
2022-08-31T12:13:42.341Z,6.40
2022-08-31T12:16:22.809Z,9.63
2022-08-31T12:19:08.256Z,10.50
2022-08-31T12:22:02.738Z,7.78
2022-08-31T12:24:40.654Z,10.40
2022-08-31T12:27:27.527Z,7.40
2022-08-31T12:30:20.108Z,8.73
2022-08-31T12:32:59.171Z,10.80
2022-08-31T12:35:30.150Z,8.55
2022-08-31T12:38:00.383Z,10.60
2022-08-31T12:40:31.267Z,5.95
2022-08-31T12:43:06.853Z,4.38
2022-08-31T12:46:07.221Z,6.05
2022-08-31T12:48:46.970Z,5.68
2022-08-31T12:51:24.146Z,6.25
2022-08-31T12:54:09.003Z,6.47
2022-08-31T12:56:45.441Z,4.38
2022-08-31T12:59:45.665Z,4.78
2022-08-31T13:02:16.574Z,3.65
2022-08-31T13:04:46.319Z,5.63
2022-08-31T13:07:16.229Z,4.50
2022-08-31T13:09:45.855Z,4.38
2022-08-31T13:12:23.896Z,4.20
2022-08-31T13:14:51.624Z,4.20
2022-08-31T13:17:21.914Z,4.13
2022-08-31T13:19:52.678Z,4.72
2022-08-31T13:22:28.851Z,4.32
2022-08-31T13:25:10.577Z,4.50
2022-08-31T13:27:48.235Z,3.33
2022-08-31T13:30:19.686Z,3.80
2022-08-31T13:32:51.395Z,4.63
2022-08-31T13:38:03.870Z,5.47
2022-08-31T13:40:35.505Z,4.45
2022-08-31T13:43:07.501Z,5.27
2022-08-31T13:45:40.404Z,4.57
2022-08-31T13:48:14.922Z,5.15
2022-08-31T13:50:52.312Z,5.93
2022-08-31T13:53:39.644Z,5.65
2022-08-31T13:56:44.164Z,5.78
2022-08-31T13:59:26.559Z,6.53
2022-08-31T14:01:56.706Z,6.18
2022-08-31T14:05:00.690Z,5.45
2022-08-31T14:07:32.570Z,6.93
2022-08-31T14:12:36.266Z,4.90
2022-08-31T14:15:18.533Z,5.35
2022-08-31T14:20:53.407Z,3.85
2022-08-31T14:23:33.037Z,5.55
2022-08-31T14:26:02.925Z,4.85
2022-08-31T14:28:41.781Z,5.50
2022-08-31T14:31:22.897Z,4.13
2022-08-31T14:33:55.981Z,11.98
2022-08-31T14:36:26.375Z,6.40
2022-08-31T14:38:55.168Z,6.28
2022-08-31T14:41:30.992Z,6.72
2022-08-31T14:44:06.858Z,9.95
2022-08-31T14:46:38.682Z,8.50
2022-08-31T14:49:07.256Z,6.70
2022-08-31T14:51:39.109Z,5.93
2022-08-31T14:56:39.099Z,7.00
2022-08-31T14:59:16.150Z,5.18
2022-08-31T15:01:46.220Z,7.28
2022-08-31T15:04:16.456Z,7.00
2022-08-31T15:06:49.219Z,8.45
2022-08-31T15:09:17.109Z,6.78
2022-08-31T15:11:45.149Z,8.88
2022-08-31T15:14:13.914Z,6.53
2022-08-31T15:16:43.602Z,5.50
2022-08-31T15:19:14.180Z,5.50
2022-08-31T15:21:52.241Z,5.55
2022-08-31T15:24:23.342Z,4.57
2022-08-31T15:26:53.323Z,5.82
2022-08-31T15:29:24.883Z,4.57
2022-08-31T15:31:55.052Z,4.13
2022-08-31T15:34:26.554Z,4.03
2022-08-31T15:36:56.180Z,4.90
2022-08-31T15:39:24.772Z,4.13
2022-08-31T15:41:52.511Z,5.35
2022-08-31T15:44:20.747Z,7.22
2022-08-31T15:47:06.333Z,5.82
2022-08-31T15:49:37.518Z,4.30
2022-08-31T15:52:07.004Z,5.22
2022-08-31T15:54:35.752Z,5.25
2022-08-31T15:57:06.053Z,4.60
2022-08-31T15:59:34.687Z,6.00
2022-08-31T16:02:03.036Z,5.32
2022-08-31T16:04:31.673Z,7.10
2022-08-31T16:07:01.651Z,6.72
2022-08-31T16:09:29.398Z,6.45
2022-08-31T16:11:57.112Z,5.22
2022-08-31T16:14:24.943Z,6.70
2022-08-31T16:16:52.811Z,4.95
2022-08-31T16:19:34.633Z,7.65
2022-08-31T16:22:06.101Z,6.90
2022-08-31T16:24:37.055Z,6.85
2022-08-31T16:27:07.924Z,5.63
2022-08-31T16:29:37.134Z,8.15
2022-08-31T16:32:06.569Z,6.60
2022-08-31T16:34:35.464Z,6.57
2022-08-31T16:37:07.265Z,8.30
2022-08-31T16:39:37.089Z,8.30
2022-08-31T16:42:05.829Z,8.07
2022-08-31T16:44:36.651Z,6.75
2022-08-31T16:47:06.669Z,7.70
2022-08-31T16:49:34.089Z,11.27
2022-08-31T16:52:03.368Z,7.35
2022-08-31T16:54:33.974Z,10.40
2022-08-31T16:57:02.390Z,9.10
2022-08-31T16:59:30.681Z,11.25
2022-08-31T17:01:58.822Z,8.80
2022-08-31T17:04:51.070Z,11.45
2022-08-31T17:07:16.409Z,12.45
2022-08-31T17:09:46.142Z,9.45
2022-08-31T17:12:17.044Z,8.93
2022-08-31T17:14:48.210Z,14.25
2022-08-31T17:17:18.202Z,10.35
2022-08-31T17:19:46.944Z,8.82
2022-08-31T17:22:23.323Z,11.20
2022-08-31T17:24:57.764Z,11.75
2022-08-31T17:29:56.439Z,9.35
2022-08-31T17:32:27.605Z,13.55
2022-08-31T17:34:56.546Z,11.82
2022-08-31T17:37:28.367Z,8.45
2022-08-31T17:39:57.547Z,13.40
2022-08-31T17:42:28.076Z,13.20
2022-08-31T17:44:56.334Z,12.85
2022-08-31T17:47:26.504Z,14.45
2022-08-31T17:49:55.055Z,11.27
2022-08-31T17:52:23.797Z,16.30
2022-08-31T17:54:52.325Z,10.50
2022-08-31T17:57:24.824Z,12.80
2022-08-31T17:59:54.877Z,11.30
2022-08-31T18:02:27.543Z,12.45
2022-08-31T18:04:55.492Z,13.27
2022-08-31T18:07:23.271Z,12.95
2022-08-31T18:09:51.956Z,13.60
2022-08-31T18:12:22.832Z,13.43
2022-08-31T18:14:51.031Z,14.32
2022-08-31T18:17:22.146Z,12.15
2022-08-31T18:19:49.974Z,12.18
2022-08-31T18:22:18.351Z,14.40
2022-08-31T18:24:46.410Z,14.45
2022-08-31T18:27:16.116Z,11.45
2022-08-31T18:29:46.296Z,12.88
2022-08-31T18:32:15.277Z,14.00
2022-08-31T18:34:47.082Z,14.48
2022-08-31T18:37:16.195Z,13.45
2022-08-31T18:40:04.276Z,13.95
2022-08-31T18:42:50.645Z,13.48
2022-08-31T18:45:20.340Z,11.73
2022-08-31T18:48:20.898Z,10.35
2022-08-31T18:50:42.424Z,13.25
2022-08-31T18:53:11.037Z,15.07
2022-08-31T18:55:43.200Z,23.17
2022-08-31T18:58:11.109Z,16.55
2022-08-31T19:00:40.670Z,17.38
2022-08-31T19:03:08.831Z,15.15
2022-08-31T19:05:39.875Z,15.10
2022-08-31T19:08:08.124Z,15.52
2022-08-31T19:10:35.842Z,13.93
2022-08-31T19:13:07.697Z,14.90
2022-08-31T19:15:41.063Z,19.65
2022-08-31T19:18:09.166Z,13.77
2022-08-31T19:20:36.904Z,15.18
2022-08-31T19:23:04.693Z,14.18
2022-08-31T19:25:32.897Z,17.70
2022-08-31T19:28:01.616Z,16.13
2022-08-31T19:30:30.186Z,17.38
2022-08-31T19:32:59.340Z,13.20
2022-08-31T19:35:27.480Z,15.65
2022-08-31T19:37:56.664Z,16.83
2022-08-31T19:40:43.020Z,14.57
2022-08-31T19:46:15.935Z,13.05
2022-08-31T19:48:46.085Z,14.25
2022-08-31T19:51:15.525Z,15.00
2022-08-31T19:53:44.859Z,13.77
2022-08-31T19:56:14.670Z,15.05
2022-08-31T19:58:42.804Z,14.95
2022-08-31T20:01:11.305Z,17.58
2022-08-31T20:03:40.793Z,15.25
2022-08-31T20:06:13.335Z,16.02
2022-08-31T20:08:42.097Z,16.85
2022-08-31T20:11:11.057Z,15.18
2022-08-31T20:13:41.141Z,14.73
2022-08-31T20:16:09.808Z,16.70
2022-08-31T20:18:38.261Z,18.30
2022-08-31T20:21:17.303Z,22.83
2022-08-31T20:23:48.826Z,17.95
2022-08-31T20:26:18.901Z,19.92
2022-08-31T20:28:46.770Z,22.67
2022-08-31T20:31:16.603Z,18.08
2022-08-31T20:33:45.498Z,27.70
2022-08-31T20:36:18.939Z,21.77
2022-08-31T20:38:49.084Z,19.65
2022-08-31T20:41:17.284Z,22.63
2022-08-31T20:43:45.138Z,22.15
2022-08-31T20:46:34.480Z,21.10
2022-08-31T20:49:19.711Z,26.15
2022-08-31T20:51:47.581Z,25.40
2022-08-31T20:54:17.369Z,26.25
2022-08-31T20:56:45.675Z,24.65
2022-08-31T20:59:13.526Z,25.20
2022-08-31T21:01:41.678Z,26.48
2022-08-31T21:04:09.617Z,20.58
2022-08-31T21:06:37.912Z,21.38
2022-08-31T21:09:06.673Z,19.85
2022-08-31T21:11:40.581Z,21.23
2022-08-31T21:14:08.938Z,23.15
2022-08-31T21:16:36.766Z,22.90
2022-08-31T21:19:07.424Z,23.70
2022-08-31T21:21:35.316Z,22.02
2022-08-31T21:24:03.389Z,22.77
2022-08-31T21:26:31.142Z,26.90
2022-08-31T21:29:00.702Z,22.60
2022-08-31T21:31:29.513Z,22.52
2022-08-31T21:33:59.403Z,23.02
2022-08-31T21:36:28.458Z,19.60
2022-08-31T21:38:57.928Z,21.02
2022-08-31T21:41:28.271Z,23.48
2022-08-31T21:43:58.193Z,22.27
2022-08-31T21:46:29.318Z,23.52
2022-08-31T21:48:59.311Z,22.70
2022-08-31T21:51:29.534Z,23.40
2022-08-31T21:53:59.622Z,22.02
2022-08-31T21:56:29.910Z,22.25
2022-08-31T21:58:58.502Z,23.27
2022-08-31T22:01:29.914Z,21.92
2022-08-31T22:03:59.423Z,22.83
2022-08-31T22:06:31.511Z,28.65
2022-08-31T22:11:30.005Z,23.58
2022-08-31T22:13:59.792Z,26.15
2022-08-31T22:16:29.225Z,27.55
2022-08-31T22:19:01.225Z,21.30
2022-08-31T22:21:32.246Z,22.20
2022-08-31T22:24:03.155Z,23.58
2022-08-31T22:26:34.905Z,29.90
2022-08-31T22:29:02.709Z,21.52
2022-08-31T22:31:32.896Z,21.52
2022-08-31T22:34:00.749Z,19.23
2022-08-31T22:36:32.371Z,18.80
2022-08-31T22:39:03.117Z,24.35
2022-08-31T22:41:31.759Z,21.35
2022-08-31T22:44:00.435Z,23.02
2022-08-31T22:46:28.443Z,22.30
2022-08-31T22:48:58.531Z,20.15
2022-08-31T22:51:26.259Z,22.50
2022-08-31T22:53:54.273Z,23.13
2022-08-31T22:56:25.894Z,21.58
2022-08-31T22:58:55.204Z,22.42
2022-08-31T23:01:25.674Z,20.23
2022-08-31T23:03:55.148Z,19.60
2022-08-31T23:06:26.776Z,20.92
2022-08-31T23:08:56.491Z,20.30
2022-08-31T23:11:26.235Z,19.75
2022-08-31T23:13:56.673Z,18.67
2022-08-31T23:16:27.014Z,19.67
2022-08-31T23:18:57.647Z,18.20
2022-08-31T23:21:29.510Z,19.63
2022-08-31T23:23:57.960Z,16.67
2022-08-31T23:26:27.520Z,20.17
2022-08-31T23:28:55.764Z,22.02
2022-08-31T23:31:24.322Z,21.88
2022-08-31T23:33:53.495Z,18.67
2022-08-31T23:36:26.162Z,19.38
2022-08-31T23:38:56.693Z,22.60
2022-08-31T23:41:26.562Z,18.58
2022-08-31T23:43:56.738Z,23.88
2022-08-31T23:46:25.087Z,26.63
2022-08-31T23:48:54.216Z,23.27
2022-08-31T23:51:24.458Z,24.25
2022-08-31T23:53:55.251Z,28.77
2022-08-31T23:56:32.648Z,35.78
2022-08-31T23:59:02.010Z,27.75
